createdAt,value
2019-06-20T00:01:32.536Z,12.00
2019-06-20T00:04:03.652Z,11.93
2019-06-20T00:06:42.162Z,12.43
2019-06-20T00:09:14.044Z,12.03
2019-06-20T00:11:49.360Z,11.78
2019-06-20T00:14:39.272Z,10.93
2019-06-20T00:17:19.451Z,12.58
2019-06-20T00:19:54.802Z,11.78
2019-06-20T00:22:25.843Z,11.38
2019-06-20T00:24:56.985Z,11.93
2019-06-20T00:27:28.098Z,14.07
2019-06-20T00:29:59.199Z,14.25
2019-06-20T00:32:30.363Z,14.73
2019-06-20T00:35:01.429Z,15.03
2019-06-20T00:37:32.595Z,13.03
2019-06-20T00:40:03.680Z,13.18
2019-06-20T00:42:36.031Z,13.93
2019-06-20T00:45:08.336Z,12.88
2019-06-20T00:47:39.480Z,11.95
2019-06-20T00:50:11.607Z,13.18
2019-06-20T00:52:43.685Z,12.73
2019-06-20T00:55:14.921Z,11.83
2019-06-20T00:57:46.022Z,12.20
2019-06-20T01:00:17.556Z,12.37
2019-06-20T01:02:48.839Z,11.73
2019-06-20T01:05:19.896Z,12.33
2019-06-20T01:07:51.215Z,13.68
2019-06-20T01:10:22.430Z,11.97
2019-06-20T01:12:53.562Z,12.20
2019-06-20T01:15:24.811Z,14.65
2019-06-20T01:17:55.888Z,13.08
2019-06-20T01:20:27.093Z,12.25
2019-06-20T01:22:58.237Z,12.28
2019-06-20T01:25:39.257Z,12.73
2019-06-20T01:28:10.669Z,12.10
2019-06-20T01:30:42.183Z,12.58
2019-06-20T01:33:13.244Z,11.97
2019-06-20T01:35:44.319Z,11.90
2019-06-20T01:38:15.517Z,11.48
2019-06-20T01:40:45.841Z,12.53
2019-06-20T01:43:16.924Z,12.65
2019-06-20T01:45:47.967Z,12.93
2019-06-20T01:48:19.207Z,14.93
2019-06-20T01:50:50.330Z,17.23
2019-06-20T01:53:21.403Z,22.20
2019-06-20T01:55:52.509Z,19.00
2019-06-20T01:58:23.581Z,18.87
2019-06-20T02:00:54.882Z,18.85
2019-06-20T02:03:26.064Z,16.62
2019-06-20T02:05:57.249Z,16.77
2019-06-20T02:08:28.285Z,16.05
2019-06-20T02:10:59.387Z,16.45
2019-06-20T02:13:30.484Z,19.70
2019-06-20T02:16:01.545Z,17.73
2019-06-20T02:18:32.755Z,16.25
2019-06-20T02:21:04.687Z,16.82
2019-06-20T02:23:35.793Z,15.65
2019-06-20T02:26:06.846Z,14.95
2019-06-20T02:28:37.908Z,16.27
2019-06-20T02:31:09.194Z,14.95
2019-06-20T02:33:40.283Z,14.58
2019-06-20T02:36:11.342Z,14.03
2019-06-20T02:38:42.499Z,14.85
2019-06-20T02:41:13.559Z,15.43
2019-06-20T02:43:44.659Z,16.27
2019-06-20T02:46:15.927Z,16.52
2019-06-20T02:48:47.137Z,16.42
2019-06-20T02:51:19.563Z,18.37
2019-06-20T02:53:50.613Z,16.02
2019-06-20T02:56:21.785Z,15.75
2019-06-20T02:58:52.863Z,14.45
2019-06-20T03:01:23.978Z,14.98
2019-06-20T03:03:55.033Z,16.00
2019-06-20T03:06:26.231Z,13.85
2019-06-20T03:08:57.256Z,15.75
2019-06-20T03:11:28.431Z,13.95
2019-06-20T03:13:59.516Z,15.90
2019-06-20T03:16:30.696Z,16.93
2019-06-20T03:19:01.740Z,15.18
2019-06-20T03:21:32.926Z,16.25
2019-06-20T03:24:04.021Z,14.38
2019-06-20T03:26:35.149Z,14.53
2019-06-20T03:29:06.331Z,14.65
2019-06-20T03:31:37.409Z,15.95
2019-06-20T03:34:08.496Z,15.80
2019-06-20T03:36:39.610Z,14.38
2019-06-20T03:39:10.791Z,15.58
2019-06-20T03:41:41.870Z,17.73
2019-06-20T03:44:13.046Z,16.32
2019-06-20T03:46:44.151Z,16.60
2019-06-20T03:49:15.257Z,15.90
2019-06-20T03:51:46.367Z,14.93
2019-06-20T03:54:18.536Z,14.28
2019-06-20T03:56:49.715Z,18.75
2019-06-20T03:59:20.751Z,16.48
2019-06-20T04:01:51.821Z,15.95
2019-06-20T04:04:22.887Z,15.03
2019-06-20T04:06:53.998Z,16.12
2019-06-20T04:09:25.058Z,15.18
2019-06-20T04:11:56.201Z,17.02
2019-06-20T04:14:27.370Z,14.70
2019-06-20T04:16:58.517Z,15.00
2019-06-20T04:19:29.557Z,14.73
2019-06-20T04:22:00.623Z,15.03
2019-06-20T04:24:31.741Z,15.80
2019-06-20T04:27:02.802Z,14.68
2019-06-20T04:29:35.986Z,14.73
2019-06-20T04:32:06.689Z,14.03
2019-06-20T04:34:37.810Z,14.60
2019-06-20T04:37:08.980Z,14.18
2019-06-20T04:39:40.032Z,15.40
2019-06-20T04:42:11.079Z,14.60
2019-06-20T04:44:42.116Z,13.75
2019-06-20T04:47:13.460Z,13.90
2019-06-20T04:49:44.499Z,14.28
2019-06-20T04:52:15.576Z,14.38
2019-06-20T04:54:46.707Z,15.13
2019-06-20T04:57:17.777Z,13.15
2019-06-20T04:59:51.428Z,14.00
2019-06-20T05:02:34.290Z,13.48
2019-06-20T05:05:07.116Z,12.90
2019-06-20T05:07:38.240Z,13.30
2019-06-20T05:10:09.604Z,13.90
2019-06-20T05:12:40.701Z,13.18
2019-06-20T05:15:12.016Z,12.85
2019-06-20T05:17:43.179Z,13.00
2019-06-20T05:20:14.685Z,12.47
2019-06-20T05:22:45.773Z,13.30
2019-06-20T05:25:16.875Z,14.93
2019-06-20T05:27:48.033Z,12.60
2019-06-20T05:30:19.677Z,12.82
2019-06-20T05:32:50.732Z,11.65
2019-06-20T05:35:21.800Z,11.28
2019-06-20T05:37:52.933Z,10.53
2019-06-20T05:40:24.083Z,11.53
2019-06-20T05:42:55.171Z,10.93
2019-06-20T05:45:26.730Z,10.32
2019-06-20T05:47:57.824Z,10.28
2019-06-20T05:50:28.965Z,10.00
2019-06-20T05:53:00.101Z,10.15
2019-06-20T05:55:31.172Z,10.28
2019-06-20T05:58:02.232Z,10.30
2019-06-20T06:00:33.274Z,9.30
2019-06-20T06:03:07.010Z,8.63
2019-06-20T06:05:37.232Z,9.28
2019-06-20T06:08:08.492Z,8.65
2019-06-20T06:10:42.437Z,9.50
2019-06-20T06:13:13.577Z,9.38
2019-06-20T06:15:44.671Z,9.10
2019-06-20T06:18:15.741Z,9.40
2019-06-20T06:20:46.823Z,9.08
2019-06-20T06:23:17.944Z,9.58
2019-06-20T06:25:48.983Z,6.80
2019-06-20T06:28:20.874Z,7.62
2019-06-20T06:30:52.931Z,7.45
2019-06-20T06:33:23.946Z,6.05
2019-06-20T06:35:55.163Z,6.00
2019-06-20T06:38:26.209Z,7.67
2019-06-20T06:40:57.309Z,5.05
2019-06-20T06:43:28.370Z,5.78
2019-06-20T06:45:59.591Z,4.37
2019-06-20T06:48:30.685Z,5.25
2019-06-20T06:51:02.077Z,5.15
2019-06-20T06:53:33.170Z,5.08
2019-06-20T06:56:04.295Z,4.90
2019-06-20T06:58:35.545Z,5.33
2019-06-20T07:01:10.162Z,5.95
2019-06-20T07:03:40.012Z,6.85
2019-06-20T07:06:11.246Z,5.53
2019-06-20T07:08:45.257Z,5.75
2019-06-20T07:11:16.733Z,6.35
2019-06-20T07:13:47.873Z,7.55
2019-06-20T07:16:19.059Z,5.15
2019-06-20T07:18:50.264Z,6.85
2019-06-20T07:21:21.652Z,5.80
2019-06-20T07:23:52.974Z,5.97
2019-06-20T07:26:24.552Z,5.42
2019-06-20T07:28:55.792Z,4.83
2019-06-20T07:31:27.026Z,4.50
2019-06-20T07:33:58.259Z,4.60
2019-06-20T07:36:29.365Z,4.65
2019-06-20T07:39:00.698Z,4.65
2019-06-20T07:41:33.494Z,5.62
2019-06-20T07:44:05.065Z,4.55
2019-06-20T07:46:36.321Z,4.90
2019-06-20T07:49:07.619Z,5.58
2019-06-20T07:51:38.857Z,4.28
2019-06-20T07:54:10.241Z,3.80
2019-06-20T07:56:41.677Z,4.45
2019-06-20T07:59:13.382Z,4.80
2019-06-20T08:01:44.709Z,6.87
2019-06-20T08:04:16.207Z,3.92
2019-06-20T08:06:47.903Z,4.53
2019-06-20T08:09:22.076Z,4.67
2019-06-20T08:11:51.972Z,4.25
2019-06-20T08:14:23.177Z,4.42
2019-06-20T08:16:54.312Z,4.30
2019-06-20T08:19:25.434Z,5.30
2019-06-20T08:21:56.760Z,5.08
2019-06-20T08:24:28.028Z,5.08
2019-06-20T08:27:00.930Z,3.90
2019-06-20T08:29:34.246Z,5.15
2019-06-20T08:32:06.599Z,4.78
2019-06-20T08:34:38.141Z,5.00
2019-06-20T08:37:09.347Z,4.40
2019-06-20T08:39:40.827Z,5.25
2019-06-20T08:42:12.144Z,4.15
2019-06-20T08:44:43.474Z,3.95
2019-06-20T08:47:14.615Z,4.53
2019-06-20T08:49:46.016Z,4.25
2019-06-20T08:52:17.199Z,3.67
2019-06-20T08:54:48.312Z,4.25
2019-06-20T08:57:23.179Z,6.35
2019-06-20T08:59:52.332Z,6.00
2019-06-20T09:02:23.535Z,3.55
2019-06-20T09:04:56.248Z,3.58
2019-06-20T09:07:27.837Z,3.70
2019-06-20T09:09:59.811Z,3.20
2019-06-20T09:12:30.998Z,2.62
2019-06-20T09:15:03.197Z,5.50
2019-06-20T09:17:34.444Z,4.20
2019-06-20T09:20:06.540Z,5.00
2019-06-20T09:22:37.918Z,3.98
2019-06-20T09:25:09.404Z,3.98
2019-06-20T09:27:40.686Z,3.45
2019-06-20T09:30:13.469Z,3.55
2019-06-20T09:32:45.623Z,3.47
2019-06-20T09:35:17.833Z,3.22
2019-06-20T09:37:49.196Z,3.42
2019-06-20T09:40:20.489Z,3.75
2019-06-20T09:42:52.880Z,3.52
2019-06-20T09:45:24.676Z,3.17
2019-06-20T09:47:56.062Z,3.33
2019-06-20T09:50:27.532Z,3.42
2019-06-20T09:52:58.659Z,3.12
2019-06-20T09:55:29.965Z,2.85
2019-06-20T09:58:01.251Z,3.65
2019-06-20T10:00:32.744Z,3.40
2019-06-20T10:03:04.393Z,3.67
2019-06-20T10:05:36.134Z,3.10
2019-06-20T10:08:07.627Z,3.15
2019-06-20T10:10:38.992Z,3.12
2019-06-20T10:13:10.238Z,3.40
2019-06-20T10:15:41.390Z,3.62
2019-06-20T10:18:12.515Z,5.25
2019-06-20T10:20:44.371Z,3.37
2019-06-20T10:23:16.551Z,3.22
2019-06-20T10:25:47.853Z,3.10
2019-06-20T10:28:20.444Z,4.92
2019-06-20T10:30:51.613Z,3.67
2019-06-20T10:33:22.862Z,4.03
2019-06-20T10:35:54.031Z,3.42
2019-06-20T10:38:25.289Z,3.60
2019-06-20T10:40:59.871Z,3.25
2019-06-20T10:43:29.555Z,3.70
2019-06-20T10:46:01.443Z,3.30
2019-06-20T10:48:33.052Z,3.47
2019-06-20T10:51:23.042Z,3.87
2019-06-20T10:53:55.365Z,3.30
2019-06-20T10:56:28.098Z,4.25
2019-06-20T10:58:59.193Z,3.75
2019-06-20T11:01:36.172Z,4.40
2019-06-20T11:04:08.451Z,3.75
2019-06-20T11:06:41.309Z,5.42
2019-06-20T11:09:18.052Z,6.30
2019-06-20T11:11:54.326Z,3.87
2019-06-20T11:14:28.235Z,3.67
2019-06-20T11:17:02.766Z,4.33
2019-06-20T11:19:35.404Z,3.87
2019-06-20T11:22:06.572Z,3.80
2019-06-20T11:24:39.128Z,3.70
2019-06-20T11:27:10.532Z,4.08
2019-06-20T11:29:44.108Z,5.40
2019-06-20T11:32:15.345Z,6.65
2019-06-20T11:34:47.563Z,5.97
2019-06-20T11:37:28.745Z,4.25
2019-06-20T11:40:02.755Z,3.60
2019-06-20T11:42:34.696Z,4.40
2019-06-20T11:45:35.494Z,3.85
2019-06-20T11:48:07.328Z,3.98
2019-06-20T11:50:38.442Z,4.03
2019-06-20T11:53:09.682Z,4.30
2019-06-20T12:15:49.082Z,4.00
2019-06-20T12:18:20.380Z,3.80
2019-06-20T12:20:51.590Z,4.50
2019-06-20T12:23:27.239Z,4.20
2019-06-20T12:25:58.405Z,3.80
2019-06-20T12:28:29.694Z,4.08
2019-06-20T12:31:01.461Z,3.75
2019-06-20T12:33:32.726Z,3.52
2019-06-20T12:36:03.906Z,4.35
2019-06-20T12:38:35.945Z,5.53
2019-06-20T12:41:07.143Z,3.95
2019-06-20T12:43:41.862Z,4.10
2019-06-20T12:46:14.175Z,4.30
2019-06-20T12:48:49.175Z,3.90
2019-06-20T12:51:21.731Z,4.10
2019-06-20T12:53:55.371Z,4.33
2019-06-20T12:56:34.730Z,7.55
2019-06-20T12:59:08.088Z,4.60
2019-06-20T13:01:51.095Z,4.95
2019-06-20T13:04:39.924Z,5.17
2019-06-20T13:07:12.782Z,5.08
2019-06-20T13:09:44.087Z,4.95
2019-06-20T13:12:15.228Z,5.67
2019-06-20T13:14:49.649Z,6.10
2019-06-20T13:17:20.885Z,4.95
2019-06-20T13:19:53.083Z,7.22
2019-06-20T13:22:39.615Z,4.78
2019-06-20T13:25:13.130Z,4.33
2019-06-20T13:27:45.585Z,3.95
2019-06-20T13:30:23.867Z,4.30
2019-06-20T13:32:55.084Z,29.45
2019-06-20T13:35:42.334Z,15.30
2019-06-20T13:38:20.428Z,24.77
2019-06-20T13:40:55.526Z,11.63
2019-06-20T13:43:33.898Z,5.90
2019-06-20T13:46:09.045Z,9.30
2019-06-20T13:48:52.729Z,6.60
2019-06-20T13:51:20.139Z,5.45
2019-06-20T13:53:51.454Z,5.35
2019-06-20T13:56:23.289Z,5.53
2019-06-20T13:58:57.670Z,6.08
2019-06-20T14:01:29.386Z,6.42
2019-06-20T14:04:00.469Z,5.28
2019-06-20T14:06:31.822Z,5.78
2019-06-20T14:09:03.093Z,4.90
2019-06-20T14:11:36.166Z,4.90
2019-06-20T14:14:07.507Z,6.80
2019-06-20T14:16:41.210Z,5.12
2019-06-20T14:19:12.683Z,5.30
2019-06-20T14:21:43.849Z,5.85
2019-06-20T14:24:14.982Z,5.17
2019-06-20T14:26:46.781Z,4.50
2019-06-20T14:29:19.024Z,5.03
2019-06-20T14:31:51.591Z,4.58
2019-06-20T14:34:22.873Z,5.50
2019-06-20T14:36:54.125Z,5.25
2019-06-20T14:39:26.045Z,6.85
2019-06-20T14:41:57.391Z,6.10
2019-06-20T14:44:29.343Z,6.12
2019-06-20T14:47:04.572Z,5.78
2019-06-20T14:49:35.966Z,6.42
2019-06-20T14:52:07.288Z,5.20
2019-06-20T14:54:38.344Z,5.15
2019-06-20T14:57:09.482Z,5.85
2019-06-20T14:59:40.669Z,4.35
2019-06-20T15:02:11.862Z,4.83
2019-06-20T15:04:44.403Z,4.58
2019-06-20T15:07:16.570Z,4.62
2019-06-20T15:09:48.112Z,4.60
2019-06-20T15:12:20.461Z,4.35
2019-06-20T15:14:51.590Z,6.12
2019-06-20T15:17:23.855Z,4.25
2019-06-20T15:19:56.177Z,4.90
2019-06-20T15:22:27.635Z,4.17
2019-06-20T15:24:58.978Z,4.75
2019-06-20T15:27:30.131Z,4.95
2019-06-20T15:30:01.317Z,5.17
2019-06-20T15:32:33.625Z,4.28
2019-06-20T15:35:05.509Z,4.65
2019-06-20T15:37:36.553Z,4.75
2019-06-20T15:40:09.023Z,4.90
2019-06-20T15:42:40.112Z,4.30
2019-06-20T15:45:11.461Z,4.75
2019-06-20T15:47:42.753Z,4.70
2019-06-20T15:50:14.070Z,4.80
2019-06-20T15:52:45.269Z,4.80
2019-06-20T15:55:19.697Z,5.22
2019-06-20T15:57:53.904Z,6.05
2019-06-20T16:00:23.723Z,4.95
2019-06-20T16:03:09.033Z,5.70
2019-06-20T16:05:27.560Z,4.85
2019-06-20T16:07:58.786Z,5.97
2019-06-20T16:10:29.985Z,5.53
2019-06-20T16:13:01.122Z,6.30
2019-06-20T16:15:32.368Z,5.53
2019-06-20T16:18:03.495Z,4.90
2019-06-20T16:20:34.564Z,6.37
2019-06-20T16:23:05.761Z,5.45
2019-06-20T16:25:36.886Z,5.78
2019-06-20T16:28:08.072Z,6.00
2019-06-20T16:30:40.447Z,8.60
2019-06-20T16:33:24.000Z,6.00
2019-06-20T16:35:44.467Z,6.10
2019-06-20T16:38:15.597Z,5.90
2019-06-20T16:40:58.085Z,6.05
2019-06-20T16:43:42.663Z,5.58
2019-06-20T16:46:27.303Z,5.62
2019-06-20T16:49:15.598Z,5.60
2019-06-20T16:52:08.635Z,6.05
2019-06-20T16:54:58.333Z,5.50
2019-06-20T16:57:31.024Z,5.78
2019-06-20T17:00:37.807Z,5.35
2019-06-20T17:03:07.099Z,5.30
2019-06-20T17:05:38.271Z,5.33
2019-06-20T17:08:12.654Z,5.83
2019-06-20T17:10:46.136Z,5.47
2019-06-20T17:13:19.130Z,6.00
2019-06-20T17:15:50.218Z,5.05
2019-06-20T17:18:24.715Z,4.80
2019-06-20T17:20:57.768Z,5.03
2019-06-20T17:23:30.385Z,4.97
2019-06-20T17:26:14.296Z,5.25
2019-06-20T17:28:49.969Z,4.17
2019-06-20T17:31:22.466Z,4.85
2019-06-20T17:33:57.828Z,4.75
2019-06-20T17:36:36.581Z,4.40
2019-06-20T17:39:09.651Z,4.97
2019-06-20T17:41:54.352Z,4.87
2019-06-20T17:44:14.137Z,7.35
2019-06-20T17:46:45.531Z,6.55
2019-06-20T17:49:16.895Z,20.27
2019-06-20T17:51:50.900Z,31.48
2019-06-20T17:54:22.234Z,22.20
2019-06-20T17:56:53.907Z,15.40
2019-06-20T17:59:25.840Z,11.63
2019-06-20T18:01:57.187Z,8.73
2019-06-20T18:04:28.459Z,7.40
2019-06-20T18:07:03.100Z,6.95
2019-06-20T18:09:34.474Z,7.30
2019-06-20T18:12:07.702Z,7.85
2019-06-20T18:14:38.909Z,19.50
2019-06-20T18:17:10.115Z,21.05
2019-06-20T18:19:41.395Z,21.27
2019-06-20T18:22:12.589Z,15.95
2019-06-20T18:24:43.795Z,15.48
2019-06-20T18:27:14.935Z,12.25
2019-06-20T18:29:46.171Z,11.95
2019-06-20T18:32:17.332Z,13.28
2019-06-20T18:35:01.479Z,14.68
2019-06-20T18:37:30.936Z,12.45
2019-06-20T18:39:54.058Z,13.68
2019-06-20T18:42:25.324Z,11.83
2019-06-20T18:44:56.602Z,11.20
2019-06-20T18:47:27.907Z,8.58
2019-06-20T18:50:07.481Z,8.10
2019-06-20T18:52:51.568Z,7.05
2019-06-20T18:55:13.119Z,7.08
2019-06-20T18:57:44.779Z,7.20
2019-06-20T19:00:30.799Z,7.80
2019-06-20T19:03:11.497Z,7.05
2019-06-20T19:06:01.644Z,7.28
2019-06-20T19:09:00.834Z,7.12
2019-06-20T19:11:43.624Z,7.45
2019-06-20T19:14:16.786Z,8.13
2019-06-20T19:16:48.105Z,7.12
2019-06-20T19:19:20.912Z,8.50
2019-06-20T19:21:54.069Z,8.13
2019-06-20T19:24:26.221Z,8.33
2019-06-20T19:26:57.380Z,7.95
2019-06-20T19:29:29.625Z,8.28
2019-06-20T19:32:01.385Z,7.83
2019-06-20T19:34:33.284Z,8.15
2019-06-20T19:37:04.661Z,8.28
2019-06-20T19:39:36.313Z,7.50
2019-06-20T19:42:07.660Z,8.30
2019-06-20T19:44:38.867Z,8.85
2019-06-20T19:47:11.539Z,8.05
2019-06-20T19:49:42.867Z,7.42
2019-06-20T19:52:14.331Z,8.98
2019-06-20T19:54:45.704Z,8.28
2019-06-20T19:57:17.129Z,10.15
2019-06-20T19:59:48.332Z,9.50
2019-06-20T20:02:42.493Z,9.15
2019-06-20T20:05:19.480Z,8.85
2019-06-20T20:07:47.700Z,8.70
2019-06-20T20:10:27.899Z,8.70
2019-06-20T20:12:59.527Z,8.48
2019-06-20T20:15:31.061Z,7.53
2019-06-20T20:18:04.233Z,8.30
2019-06-20T20:20:35.702Z,8.48
2019-06-20T20:23:07.597Z,8.23
2019-06-20T20:25:38.760Z,8.43
2019-06-20T20:28:10.070Z,7.65
2019-06-20T20:30:42.100Z,8.63
2019-06-20T20:33:13.630Z,7.67
2019-06-20T20:35:45.497Z,8.93
2019-06-20T20:38:16.896Z,8.25
2019-06-20T20:40:48.590Z,8.43
2019-06-20T20:43:20.721Z,8.83
2019-06-20T20:45:52.175Z,8.25
2019-06-20T20:48:23.712Z,8.55
2019-06-20T20:50:55.051Z,9.68
2019-06-20T20:53:26.262Z,9.10
2019-06-20T20:55:57.789Z,8.40
2019-06-20T20:58:29.098Z,8.25
2019-06-20T21:01:23.479Z,7.92
2019-06-20T21:03:54.732Z,9.93
2019-06-20T21:06:25.949Z,9.90
2019-06-20T21:08:58.355Z,10.65
2019-06-20T21:11:29.538Z,10.40
2019-06-20T21:14:00.693Z,17.10
2019-06-20T21:16:31.864Z,13.48
2019-06-20T21:19:03.033Z,12.90
2019-06-20T21:21:34.319Z,12.82
2019-06-20T21:24:05.818Z,12.82
2019-06-20T21:26:49.001Z,12.05
2019-06-20T21:29:10.101Z,11.85
2019-06-20T21:31:41.214Z,11.80
2019-06-20T21:34:25.854Z,12.00
2019-06-20T21:36:57.166Z,10.82
2019-06-20T21:39:28.577Z,10.70
2019-06-20T21:41:59.743Z,11.28
2019-06-20T21:44:30.919Z,10.98
2019-06-20T21:47:02.030Z,10.93
2019-06-20T21:49:33.244Z,9.83
2019-06-20T21:52:05.782Z,9.88
2019-06-20T21:54:36.884Z,10.18
2019-06-20T21:57:07.985Z,9.68
2019-06-20T21:59:39.092Z,9.20
2019-06-20T22:02:10.819Z,9.50
2019-06-20T22:04:54.001Z,8.78
2019-06-20T22:07:14.739Z,9.85
2019-06-20T22:09:45.952Z,9.48
2019-06-20T22:12:17.157Z,9.73
2019-06-20T22:14:48.318Z,10.80
2019-06-20T22:17:19.435Z,8.68
2019-06-20T22:19:50.584Z,10.60
2019-06-20T22:22:21.833Z,10.08
2019-06-20T22:24:53.332Z,9.33
2019-06-20T22:27:24.539Z,9.08
2019-06-20T22:29:55.561Z,9.60
2019-06-20T22:32:26.734Z,9.50
2019-06-20T22:34:57.926Z,10.93
2019-06-20T22:37:28.979Z,9.53
2019-06-20T22:40:00.047Z,10.23
2019-06-20T22:42:31.260Z,10.13
2019-06-20T22:45:02.389Z,10.03
2019-06-20T22:47:33.584Z,10.03
2019-06-20T22:50:04.966Z,9.33
2019-06-20T22:52:36.057Z,9.03
2019-06-20T22:55:07.299Z,9.80
2019-06-20T22:57:38.498Z,8.45
2019-06-20T23:00:10.838Z,9.68
2019-06-20T23:02:41.927Z,10.70
2019-06-20T23:05:13.103Z,10.88
2019-06-20T23:07:44.238Z,11.05
2019-06-20T23:10:15.951Z,11.03
2019-06-20T23:12:47.243Z,10.65
2019-06-20T23:15:18.654Z,10.53
2019-06-20T23:17:49.670Z,10.50
2019-06-20T23:20:20.947Z,10.85
2019-06-20T23:22:52.356Z,9.58
2019-06-20T23:25:23.468Z,10.03
2019-06-20T23:27:54.596Z,9.37
2019-06-20T23:30:25.969Z,9.95
2019-06-20T23:32:57.063Z,10.25
2019-06-20T23:35:28.127Z,10.00
2019-06-20T23:37:59.170Z,9.20
2019-06-20T23:40:30.323Z,10.37
2019-06-20T23:43:01.476Z,11.40
2019-06-20T23:45:32.607Z,10.48
2019-06-20T23:48:03.728Z,10.60
2019-06-20T23:50:34.803Z,9.90
2019-06-20T23:53:17.859Z,9.90
2019-06-20T23:55:49.060Z,9.55
2019-06-20T23:58:20.227Z,9.67
